sensor_id;sensor_type;location;lat;lon;timestamp;P1;durP1;ratioP1;P2;durP2;ratioP2
11334;SDS011;5722;42.620;23.374;2023-05-16T00:00:02;18.37;;;14.60;;
11334;SDS011;5722;42.620;23.374;2023-05-16T00:02:45;16.37;;;14.77;;
11334;SDS011;5722;42.620;23.374;2023-05-16T00:05:14;18.53;;;16.63;;
11334;SDS011;5722;42.620;23.374;2023-05-16T00:07:49;20.10;;;14.50;;
11334;SDS011;5722;42.620;23.374;2023-05-16T00:10:19;17.87;;;14.33;;
11334;SDS011;5722;42.620;23.374;2023-05-16T00:12:47;18.17;;;15.10;;
11334;SDS011;5722;42.620;23.374;2023-05-16T00:15:16;19.67;;;15.83;;
11334;SDS011;5722;42.620;23.374;2023-05-16T00:17:51;16.20;;;14.67;;
11334;SDS011;5722;42.620;23.374;2023-05-16T00:20:24;19.90;;;15.23;;
11334;SDS011;5722;42.620;23.374;2023-05-16T00:22:55;17.47;;;15.07;;
11334;SDS011;5722;42.620;23.374;2023-05-16T00:25:25;18.43;;;15.53;;
11334;SDS011;5722;42.620;23.374;2023-05-16T00:27:54;17.40;;;15.27;;
11334;SDS011;5722;42.620;23.374;2023-05-16T00:30:23;16.80;;;15.10;;
11334;SDS011;5722;42.620;23.374;2023-05-16T00:33:05;16.23;;;14.50;;
11334;SDS011;5722;42.620;23.374;2023-05-16T00:35:32;17.37;;;15.57;;
11334;SDS011;5722;42.620;23.374;2023-05-16T00:38:06;16.70;;;14.83;;
11334;SDS011;5722;42.620;23.374;2023-05-16T00:40:36;17.80;;;15.90;;
11334;SDS011;5722;42.620;23.374;2023-05-16T00:43:05;16.80;;;15.10;;
11334;SDS011;5722;42.620;23.374;2023-05-16T00:45:32;16.80;;;15.13;;
11334;SDS011;5722;42.620;23.374;2023-05-16T00:48:02;16.73;;;15.03;;
11334;SDS011;5722;42.620;23.374;2023-05-16T00:50:33;17.20;;;14.87;;
11334;SDS011;5722;42.620;23.374;2023-05-16T00:55:46;18.07;;;16.17;;
11334;SDS011;5722;42.620;23.374;2023-05-16T00:58:15;18.40;;;15.07;;
11334;SDS011;5722;42.620;23.374;2023-05-16T01:00:44;17.53;;;15.70;;
11334;SDS011;5722;42.620;23.374;2023-05-16T01:03:16;18.03;;;16.23;;
11334;SDS011;5722;42.620;23.374;2023-05-16T01:05:43;17.23;;;15.43;;
11334;SDS011;5722;42.620;23.374;2023-05-16T01:08:11;17.67;;;15.90;;
11334;SDS011;5722;42.620;23.374;2023-05-16T01:10:39;17.40;;;14.73;;
11334;SDS011;5722;42.620;23.374;2023-05-16T01:13:10;18.53;;;15.73;;
11334;SDS011;5722;42.620;23.374;2023-05-16T01:15:41;17.53;;;15.67;;
11334;SDS011;5722;42.620;23.374;2023-05-16T01:18:14;20.13;;;15.70;;
11334;SDS011;5722;42.620;23.374;2023-05-16T01:20:46;16.90;;;15.13;;
11334;SDS011;5722;42.620;23.374;2023-05-16T01:23:18;18.07;;;14.97;;
11334;SDS011;5722;42.620;23.374;2023-05-16T01:25:55;17.47;;;15.67;;
11334;SDS011;5722;42.620;23.374;2023-05-16T01:28:25;17.37;;;15.20;;
11334;SDS011;5722;42.620;23.374;2023-05-16T01:30:53;17.13;;;15.30;;
11334;SDS011;5722;42.620;23.374;2023-05-16T01:33:22;16.23;;;14.63;;
11334;SDS011;5722;42.620;23.374;2023-05-16T01:35:56;18.63;;;15.50;;
11334;SDS011;5722;42.620;23.374;2023-05-16T01:38:25;16.87;;;15.23;;
11334;SDS011;5722;42.620;23.374;2023-05-16T01:40:57;17.07;;;15.27;;
11334;SDS011;5722;42.620;23.374;2023-05-16T01:43:31;17.40;;;15.40;;
11334;SDS011;5722;42.620;23.374;2023-05-16T01:46:01;17.70;;;15.90;;
11334;SDS011;5722;42.620;23.374;2023-05-16T01:48:31;19.63;;;15.70;;
11334;SDS011;5722;42.620;23.374;2023-05-16T01:51:07;18.00;;;15.13;;
11334;SDS011;5722;42.620;23.374;2023-05-16T01:53:38;16.63;;;14.93;;
11334;SDS011;5722;42.620;23.374;2023-05-16T01:56:07;16.63;;;14.93;;
11334;SDS011;5722;42.620;23.374;2023-05-16T01:58:39;17.93;;;15.27;;
11334;SDS011;5722;42.620;23.374;2023-05-16T02:01:06;17.53;;;14.93;;
11334;SDS011;5722;42.620;23.374;2023-05-16T02:03:35;18.47;;;14.57;;
11334;SDS011;5722;42.620;23.374;2023-05-16T02:06:17;15.70;;;14.03;;
11334;SDS011;5722;42.620;23.374;2023-05-16T02:08:44;18.47;;;14.50;;
11334;SDS011;5722;42.620;23.374;2023-05-16T02:11:17;16.70;;;14.80;;
11334;SDS011;5722;42.620;23.374;2023-05-16T02:16:52;17.40;;;14.67;;
11334;SDS011;5722;42.620;23.374;2023-05-16T02:19:21;17.70;;;14.47;;
11334;SDS011;5722;42.620;23.374;2023-05-16T02:21:54;16.00;;;14.30;;
11334;SDS011;5722;42.620;23.374;2023-05-16T02:24:28;16.23;;;14.53;;
11334;SDS011;5722;42.620;23.374;2023-05-16T02:26:56;15.43;;;13.83;;
11334;SDS011;5722;42.620;23.374;2023-05-16T02:29:25;18.80;;;13.50;;
11334;SDS011;5722;42.620;23.374;2023-05-16T02:31:54;16.53;;;14.93;;
11334;SDS011;5722;42.620;23.374;2023-05-16T02:34:21;17.20;;;14.07;;
11334;SDS011;5722;42.620;23.374;2023-05-16T02:36:49;16.47;;;14.80;;
11334;SDS011;5722;42.620;23.374;2023-05-16T02:39:22;16.70;;;14.60;;
11334;SDS011;5722;42.620;23.374;2023-05-16T02:41:52;14.83;;;13.23;;
11334;SDS011;5722;42.620;23.374;2023-05-16T02:44:24;15.30;;;13.70;;
11334;SDS011;5722;42.620;23.374;2023-05-16T02:46:51;15.93;;;14.23;;
11334;SDS011;5722;42.620;23.374;2023-05-16T02:49:26;15.47;;;13.87;;
11334;SDS011;5722;42.620;23.374;2023-05-16T02:51:57;16.87;;;13.93;;
11334;SDS011;5722;42.620;23.374;2023-05-16T02:54:26;15.33;;;13.73;;
11334;SDS011;5722;42.620;23.374;2023-05-16T02:56:54;14.83;;;13.23;;
11334;SDS011;5722;42.620;23.374;2023-05-16T02:59:25;15.27;;;13.67;;
11334;SDS011;5722;42.620;23.374;2023-05-16T03:01:58;14.90;;;13.40;;
11334;SDS011;5722;42.620;23.374;2023-05-16T03:04:30;15.07;;;13.67;;
11334;SDS011;5722;42.620;23.374;2023-05-16T03:07:01;15.27;;;13.77;;
11334;SDS011;5722;42.620;23.374;2023-05-16T03:09:38;18.40;;;14.10;;
11334;SDS011;5722;42.620;23.374;2023-05-16T03:12:10;15.17;;;13.63;;
11334;SDS011;5722;42.620;23.374;2023-05-16T03:14:38;18.00;;;14.47;;
11334;SDS011;5722;42.620;23.374;2023-05-16T03:17:13;15.43;;;13.70;;
11334;SDS011;5722;42.620;23.374;2023-05-16T03:19:42;15.87;;;14.23;;
11334;SDS011;5722;42.620;23.374;2023-05-16T03:22:09;15.03;;;13.50;;
11334;SDS011;5722;42.620;23.374;2023-05-16T03:24:37;15.93;;;14.03;;
11334;SDS011;5722;42.620;23.374;2023-05-16T03:27:09;15.60;;;13.90;;
11334;SDS011;5722;42.620;23.374;2023-05-16T03:29:36;15.73;;;14.13;;
11334;SDS011;5722;42.620;23.374;2023-05-16T03:32:11;16.60;;;13.63;;
11334;SDS011;5722;42.620;23.374;2023-05-16T03:34:42;17.23;;;13.70;;
11334;SDS011;5722;42.620;23.374;2023-05-16T03:37:10;16.20;;;14.17;;
11334;SDS011;5722;42.620;23.374;2023-05-16T03:39:39;17.27;;;13.10;;
11334;SDS011;5722;42.620;23.374;2023-05-16T03:42:12;17.67;;;14.00;;
11334;SDS011;5722;42.620;23.374;2023-05-16T03:44:48;17.93;;;14.00;;
11334;SDS011;5722;42.620;23.374;2023-05-16T03:47:18;16.00;;;14.40;;
11334;SDS011;5722;42.620;23.374;2023-05-16T03:49:47;16.63;;;14.37;;
11334;SDS011;5722;42.620;23.374;2023-05-16T03:52:19;15.63;;;13.80;;
11334;SDS011;5722;42.620;23.374;2023-05-16T03:54:48;15.87;;;13.43;;
11334;SDS011;5722;42.620;23.374;2023-05-16T03:57:17;15.60;;;14.00;;
11334;SDS011;5722;42.620;23.374;2023-05-16T03:59:46;17.67;;;14.37;;
11334;SDS011;5722;42.620;23.374;2023-05-16T04:02:17;18.03;;;14.13;;
11334;SDS011;5722;42.620;23.374;2023-05-16T04:04:45;17.43;;;15.60;;
11334;SDS011;5722;42.620;23.374;2023-05-16T04:07:14;16.20;;;14.50;;
11334;SDS011;5722;42.620;23.374;2023-05-16T04:09:44;16.23;;;14.57;;
11334;SDS011;5722;42.620;23.374;2023-05-16T04:12:13;16.37;;;14.57;;
11334;SDS011;5722;42.620;23.374;2023-05-16T04:14:41;20.67;;;15.33;;
11334;SDS011;5722;42.620;23.374;2023-05-16T04:17:14;16.57;;;14.97;;
11334;SDS011;5722;42.620;23.374;2023-05-16T04:19:51;18.80;;;14.80;;
11334;SDS011;5722;42.620;23.374;2023-05-16T04:22:34;16.20;;;14.50;;
11334;SDS011;5722;42.620;23.374;2023-05-16T04:25:06;19.77;;;15.20;;
11334;SDS011;5722;42.620;23.374;2023-05-16T04:27:42;17.50;;;15.70;;
11334;SDS011;5722;42.620;23.374;2023-05-16T04:30:13;16.20;;;14.47;;
11334;SDS011;5722;42.620;23.374;2023-05-16T04:32:42;17.40;;;15.57;;
11334;SDS011;5722;42.620;23.374;2023-05-16T04:35:12;16.37;;;14.77;;
11334;SDS011;5722;42.620;23.374;2023-05-16T04:37:44;16.73;;;15.00;;
11334;SDS011;5722;42.620;23.374;2023-05-16T04:40:17;16.73;;;14.87;;
11334;SDS011;5722;42.620;23.374;2023-05-16T04:45:22;17.07;;;15.27;;
11334;SDS011;5722;42.620;23.374;2023-05-16T04:47:52;22.37;;;14.20;;
11334;SDS011;5722;42.620;23.374;2023-05-16T04:50:24;16.87;;;14.63;;
11334;SDS011;5722;42.620;23.374;2023-05-16T04:53:02;15.87;;;14.33;;
11334;SDS011;5722;42.620;23.374;2023-05-16T04:55:35;15.60;;;13.47;;
11334;SDS011;5722;42.620;23.374;2023-05-16T04:58:14;15.93;;;13.50;;
11334;SDS011;5722;42.620;23.374;2023-05-16T05:00:58;16.03;;;13.23;;
11334;SDS011;5722;42.620;23.374;2023-05-16T05:03:30;14.23;;;12.73;;
11334;SDS011;5722;42.620;23.374;2023-05-16T05:06:05;18.10;;;12.90;;
11334;SDS011;5722;42.620;23.374;2023-05-16T05:08:41;15.43;;;12.67;;
11334;SDS011;5722;42.620;23.374;2023-05-16T05:11:11;15.17;;;13.53;;
11334;SDS011;5722;42.620;23.374;2023-05-16T05:13:39;17.47;;;12.30;;
11334;SDS011;5722;42.620;23.374;2023-05-16T05:16:07;13.17;;;11.80;;
11334;SDS011;5722;42.620;23.374;2023-05-16T05:18:39;15.97;;;11.83;;
11334;SDS011;5722;42.620;23.374;2023-05-16T05:21:10;16.20;;;11.77;;
11334;SDS011;5722;42.620;23.374;2023-05-16T05:23:41;14.13;;;12.07;;
11334;SDS011;5722;42.620;23.374;2023-05-16T05:26:18;16.27;;;12.40;;
11334;SDS011;5722;42.620;23.374;2023-05-16T05:28:47;13.13;;;11.83;;
11334;SDS011;5722;42.620;23.374;2023-05-16T05:31:19;14.47;;;12.73;;
11334;SDS011;5722;42.620;23.374;2023-05-16T05:33:47;14.50;;;13.00;;
11334;SDS011;5722;42.620;23.374;2023-05-16T05:36:19;14.20;;;12.70;;
11334;SDS011;5722;42.620;23.374;2023-05-16T05:38:50;15.03;;;12.00;;
11334;SDS011;5722;42.620;23.374;2023-05-16T05:41:24;13.50;;;12.10;;
11334;SDS011;5722;42.620;23.374;2023-05-16T05:43:53;15.17;;;11.90;;
11334;SDS011;5722;42.620;23.374;2023-05-16T05:46:22;15.17;;;12.20;;
11334;SDS011;5722;42.620;23.374;2023-05-16T05:48:56;13.50;;;12.10;;
11334;SDS011;5722;42.620;23.374;2023-05-16T05:51:30;13.10;;;11.43;;
11334;SDS011;5722;42.620;23.374;2023-05-16T05:54:02;16.37;;;11.03;;
11334;SDS011;5722;42.620;23.374;2023-05-16T05:56:45;13.10;;;11.77;;
11334;SDS011;5722;42.620;23.374;2023-05-16T05:59:17;14.80;;;12.57;;
11334;SDS011;5722;42.620;23.374;2023-05-16T06:02:01;18.00;;;12.23;;
11334;SDS011;5722;42.620;23.374;2023-05-16T06:04:41;15.33;;;11.17;;
11334;SDS011;5722;42.620;23.374;2023-05-16T06:07:10;14.00;;;11.10;;
11334;SDS011;5722;42.620;23.374;2023-05-16T06:09:44;13.50;;;10.50;;
11334;SDS011;5722;42.620;23.374;2023-05-16T06:12:20;12.80;;;10.93;;
11334;SDS011;5722;42.620;23.374;2023-05-16T06:14:47;14.77;;;11.20;;
11334;SDS011;5722;42.620;23.374;2023-05-16T06:17:20;14.60;;;10.80;;
11334;SDS011;5722;42.620;23.374;2023-05-16T06:19:48;11.63;;;10.38;;
11334;SDS011;5722;42.620;23.374;2023-05-16T06:22:24;12.33;;;10.07;;
11334;SDS011;5722;42.620;23.374;2023-05-16T06:24:55;11.53;;;10.33;;
11334;SDS011;5722;42.620;23.374;2023-05-16T06:27:29;15.30;;;10.30;;
11334;SDS011;5722;42.620;23.374;2023-05-16T06:30:02;10.40;;;9.30;;
11334;SDS011;5722;42.620;23.374;2023-05-16T06:32:35;14.27;;;10.43;;
11334;SDS011;5722;42.620;23.374;2023-05-16T06:35:05;11.43;;;9.63;;
11334;SDS011;5722;42.620;23.374;2023-05-16T06:37:37;11.15;;;9.95;;
11334;SDS011;5722;42.620;23.374;2023-05-16T06:40:05;11.82;;;9.13;;
11334;SDS011;5722;42.620;23.374;2023-05-16T06:42:36;12.02;;;8.52;;
11334;SDS011;5722;42.620;23.374;2023-05-16T06:45:04;10.45;;;9.10;;
11334;SDS011;5722;42.620;23.374;2023-05-16T06:47:33;12.27;;;9.15;;
11334;SDS011;5722;42.620;23.374;2023-05-16T06:50:01;10.77;;;8.68;;
11334;SDS011;5722;42.620;23.374;2023-05-16T06:52:29;11.43;;;9.13;;
11334;SDS011;5722;42.620;23.374;2023-05-16T06:55:10;12.40;;;8.68;;
11334;SDS011;5722;42.620;23.374;2023-05-16T06:57:43;9.52;;;8.40;;
11334;SDS011;5722;42.620;23.374;2023-05-16T07:00:10;10.20;;;8.02;;
11334;SDS011;5722;42.620;23.374;2023-05-16T07:02:37;8.98;;;8.05;;
11334;SDS011;5722;42.620;23.374;2023-05-16T07:05:18;10.35;;;8.55;;
11334;SDS011;5722;42.620;23.374;2023-05-16T07:07:52;11.98;;;8.85;;
11334;SDS011;5722;42.620;23.374;2023-05-16T07:10:26;9.63;;;8.60;;
11334;SDS011;5722;42.620;23.374;2023-05-16T07:13:05;9.93;;;8.93;;
11334;SDS011;5722;42.620;23.374;2023-05-16T07:15:43;14.73;;;8.65;;
11334;SDS011;5722;42.620;23.374;2023-05-16T07:18:11;12.02;;;7.95;;
11334;SDS011;5722;42.620;23.374;2023-05-16T07:20:40;10.43;;;8.38;;
11334;SDS011;5722;42.620;23.374;2023-05-16T07:23:10;10.57;;;8.00;;
11334;SDS011;5722;42.620;23.374;2023-05-16T07:25:37;13.68;;;8.50;;
11334;SDS011;5722;42.620;23.374;2023-05-16T07:28:05;10.25;;;8.05;;
11334;SDS011;5722;42.620;23.374;2023-05-16T07:30:32;8.77;;;7.75;;
11334;SDS011;5722;42.620;23.374;2023-05-16T07:33:01;11.27;;;8.02;;
11334;SDS011;5722;42.620;23.374;2023-05-16T07:35:29;10.88;;;8.30;;
11334;SDS011;5722;42.620;23.374;2023-05-16T07:37:57;13.93;;;8.25;;
11334;SDS011;5722;42.620;23.374;2023-05-16T07:40:26;10.43;;;8.43;;
11334;SDS011;5722;42.620;23.374;2023-05-16T07:42:58;11.90;;;8.93;;
11334;SDS011;5722;42.620;23.374;2023-05-16T07:45:41;12.55;;;7.60;;
11334;SDS011;5722;42.620;23.374;2023-05-16T07:48:14;11.40;;;7.97;;
11334;SDS011;5722;42.620;23.374;2023-05-16T07:50:42;9.20;;;7.75;;
11334;SDS011;5722;42.620;23.374;2023-05-16T07:53:09;11.57;;;7.82;;
11334;SDS011;5722;42.620;23.374;2023-05-16T07:55:37;11.35;;;7.50;;
11334;SDS011;5722;42.620;23.374;2023-05-16T07:58:05;11.77;;;7.90;;
11334;SDS011;5722;42.620;23.374;2023-05-16T08:00:36;10.90;;;7.90;;
11334;SDS011;5722;42.620;23.374;2023-05-16T08:03:03;13.77;;;8.00;;
11334;SDS011;5722;42.620;23.374;2023-05-16T08:05:31;13.23;;;7.63;;
11334;SDS011;5722;42.620;23.374;2023-05-16T08:07:59;12.18;;;7.85;;
11334;SDS011;5722;42.620;23.374;2023-05-16T08:10:26;8.30;;;7.57;;
11334;SDS011;5722;42.620;23.374;2023-05-16T08:12:54;11.27;;;8.15;;
11334;SDS011;5722;42.620;23.374;2023-05-16T08:15:21;10.18;;;7.95;;
11334;SDS011;5722;42.620;23.374;2023-05-16T08:17:53;9.95;;;7.65;;
11334;SDS011;5722;42.620;23.374;2023-05-16T08:20:21;9.05;;;7.63;;
11334;SDS011;5722;42.620;23.374;2023-05-16T08:22:48;11.57;;;7.05;;
11334;SDS011;5722;42.620;23.374;2023-05-16T08:25:16;12.93;;;7.93;;
11334;SDS011;5722;42.620;23.374;2023-05-16T08:27:43;9.13;;;7.13;;
11334;SDS011;5722;42.620;23.374;2023-05-16T08:30:22;10.82;;;7.22;;
11334;SDS011;5722;42.620;23.374;2023-05-16T08:32:50;13.43;;;7.50;;
11334;SDS011;5722;42.620;23.374;2023-05-16T08:35:18;11.40;;;7.03;;
11334;SDS011;5722;42.620;23.374;2023-05-16T08:37:54;9.95;;;6.95;;
11334;SDS011;5722;42.620;23.374;2023-05-16T08:40:23;12.98;;;7.38;;
11334;SDS011;5722;42.620;23.374;2023-05-16T08:42:52;12.75;;;6.78;;
11334;SDS011;5722;42.620;23.374;2023-05-16T08:45:19;10.45;;;6.72;;
11334;SDS011;5722;42.620;23.374;2023-05-16T08:47:50;8.43;;;6.43;;
11334;SDS011;5722;42.620;23.374;2023-05-16T08:50:20;10.90;;;7.00;;
11334;SDS011;5722;42.620;23.374;2023-05-16T08:52:49;9.60;;;6.15;;
11334;SDS011;5722;42.620;23.374;2023-05-16T08:55:20;13.10;;;7.10;;
11334;SDS011;5722;42.620;23.374;2023-05-16T08:58:00;9.75;;;6.13;;
11334;SDS011;5722;42.620;23.374;2023-05-16T09:00:32;11.48;;;6.40;;
11334;SDS011;5722;42.620;23.374;2023-05-16T09:03:13;15.02;;;6.28;;
11334;SDS011;5722;42.620;23.374;2023-05-16T09:05:41;7.43;;;5.97;;
11334;SDS011;5722;42.620;23.374;2023-05-16T09:08:08;11.90;;;6.50;;
11334;SDS011;5722;42.620;23.374;2023-05-16T09:10:38;7.68;;;5.97;;
11334;SDS011;5722;42.620;23.374;2023-05-16T09:13:08;11.10;;;5.78;;
11334;SDS011;5722;42.620;23.374;2023-05-16T09:15:35;9.48;;;6.75;;
11334;SDS011;5722;42.620;23.374;2023-05-16T09:18:02;6.97;;;6.00;;
11334;SDS011;5722;42.620;23.374;2023-05-16T09:20:37;9.50;;;6.57;;
11334;SDS011;5722;42.620;23.374;2023-05-16T09:23:11;13.68;;;6.65;;
11334;SDS011;5722;42.620;23.374;2023-05-16T09:28:32;10.88;;;6.05;;
11334;SDS011;5722;42.620;23.374;2023-05-16T09:30:59;9.77;;;6.15;;
11334;SDS011;5722;42.620;23.374;2023-05-16T09:33:27;7.82;;;6.20;;
11334;SDS011;5722;42.620;23.374;2023-05-16T09:36:01;10.25;;;7.10;;
11334;SDS011;5722;42.620;23.374;2023-05-16T09:38:30;11.77;;;6.55;;
11334;SDS011;5722;42.620;23.374;2023-05-16T09:41:01;11.30;;;6.55;;
11334;SDS011;5722;42.620;23.374;2023-05-16T09:43:28;9.90;;;7.40;;
11334;SDS011;5722;42.620;23.374;2023-05-16T09:46:01;15.35;;;6.93;;
11334;SDS011;5722;42.620;23.374;2023-05-16T09:48:28;8.10;;;6.55;;
11334;SDS011;5722;42.620;23.374;2023-05-16T09:50:56;8.88;;;6.57;;
11334;SDS011;5722;42.620;23.374;2023-05-16T09:53:33;14.88;;;7.30;;
11334;SDS011;5722;42.620;23.374;2023-05-16T09:56:01;8.90;;;6.38;;
11334;SDS011;5722;42.620;23.374;2023-05-16T09:58:30;11.70;;;6.90;;
11334;SDS011;5722;42.620;23.374;2023-05-16T10:00:59;9.93;;;6.97;;
11334;SDS011;5722;42.620;23.374;2023-05-16T10:03:27;10.73;;;7.10;;
11334;SDS011;5722;42.620;23.374;2023-05-16T10:05:55;9.07;;;6.75;;
11334;SDS011;5722;42.620;23.374;2023-05-16T10:08:24;12.38;;;6.32;;
11334;SDS011;5722;42.620;23.374;2023-05-16T10:10:54;11.13;;;7.22;;
11334;SDS011;5722;42.620;23.374;2023-05-16T10:13:23;12.63;;;6.97;;
11334;SDS011;5722;42.620;23.374;2023-05-16T10:15:57;10.13;;;6.68;;
11334;SDS011;5722;42.620;23.374;2023-05-16T10:18:27;7.95;;;6.82;;
11334;SDS011;5722;42.620;23.374;2023-05-16T10:21:02;13.30;;;7.28;;
11334;SDS011;5722;42.620;23.374;2023-05-16T10:23:36;12.05;;;7.13;;
11334;SDS011;5722;42.620;23.374;2023-05-16T10:26:07;11.10;;;6.93;;
11334;SDS011;5722;42.620;23.374;2023-05-16T10:28:37;11.85;;;7.00;;
11334;SDS011;5722;42.620;23.374;2023-05-16T10:31:07;8.73;;;6.93;;
11334;SDS011;5722;42.620;23.374;2023-05-16T10:33:37;9.15;;;7.43;;
11334;SDS011;5722;42.620;23.374;2023-05-16T10:36:11;11.10;;;7.20;;
11334;SDS011;5722;42.620;23.374;2023-05-16T10:38:50;11.80;;;7.90;;
11334;SDS011;5722;42.620;23.374;2023-05-16T10:41:31;13.05;;;7.47;;
11334;SDS011;5722;42.620;23.374;2023-05-16T10:44:06;10.48;;;7.07;;
11334;SDS011;5722;42.620;23.374;2023-05-16T10:46:48;13.90;;;6.85;;
11334;SDS011;5722;42.620;23.374;2023-05-16T10:49:25;10.55;;;7.28;;
11334;SDS011;5722;42.620;23.374;2023-05-16T10:54:43;11.10;;;6.75;;
11334;SDS011;5722;42.620;23.374;2023-05-16T11:00:14;9.50;;;6.95;;
11334;SDS011;5722;42.620;23.374;2023-05-16T11:02:48;12.02;;;7.13;;
11334;SDS011;5722;42.620;23.374;2023-05-16T11:05:17;14.30;;;6.78;;
11334;SDS011;5722;42.620;23.374;2023-05-16T11:08:00;10.18;;;6.43;;
11334;SDS011;5722;42.620;23.374;2023-05-16T11:10:42;11.70;;;7.13;;
11334;SDS011;5722;42.620;23.374;2023-05-16T11:13:09;8.60;;;6.30;;
11334;SDS011;5722;42.620;23.374;2023-05-16T11:15:39;8.48;;;6.85;;
11334;SDS011;5722;42.620;23.374;2023-05-16T11:18:07;11.02;;;6.75;;
11334;SDS011;5722;42.620;23.374;2023-05-16T11:20:35;11.95;;;6.55;;
11334;SDS011;5722;42.620;23.374;2023-05-16T11:23:19;9.05;;;6.70;;
11334;SDS011;5722;42.620;23.374;2023-05-16T11:25:47;10.95;;;6.72;;
11334;SDS011;5722;42.620;23.374;2023-05-16T11:28:17;11.90;;;6.53;;
11334;SDS011;5722;42.620;23.374;2023-05-16T11:30:50;12.15;;;6.57;;
11334;SDS011;5722;42.620;23.374;2023-05-16T11:33:19;10.00;;;6.03;;
11334;SDS011;5722;42.620;23.374;2023-05-16T11:36:03;12.40;;;6.90;;
11334;SDS011;5722;42.620;23.374;2023-05-16T11:38:30;9.65;;;6.68;;
11334;SDS011;5722;42.620;23.374;2023-05-16T11:41:03;11.90;;;6.65;;
11334;SDS011;5722;42.620;23.374;2023-05-16T11:43:36;11.35;;;6.75;;
11334;SDS011;5722;42.620;23.374;2023-05-16T11:46:11;11.95;;;6.28;;
11334;SDS011;5722;42.620;23.374;2023-05-16T11:48:39;11.50;;;6.75;;
11334;SDS011;5722;42.620;23.374;2023-05-16T11:51:08;9.73;;;6.82;;
11334;SDS011;5722;42.620;23.374;2023-05-16T11:53:37;10.95;;;6.85;;
11334;SDS011;5722;42.620;23.374;2023-05-16T11:56:07;12.93;;;6.10;;
11334;SDS011;5722;42.620;23.374;2023-05-16T11:58:38;11.32;;;6.82;;
11334;SDS011;5722;42.620;23.374;2023-05-16T12:01:07;10.68;;;6.50;;
11334;SDS011;5722;42.620;23.374;2023-05-16T12:03:39;9.55;;;6.82;;
11334;SDS011;5722;42.620;23.374;2023-05-16T12:06:20;11.40;;;7.22;;
11334;SDS011;5722;42.620;23.374;2023-05-16T12:08:57;11.15;;;6.28;;
11334;SDS011;5722;42.620;23.374;2023-05-16T12:11:34;11.40;;;7.10;;
11334;SDS011;5722;42.620;23.374;2023-05-16T12:14:04;7.70;;;6.28;;
11334;SDS011;5722;42.620;23.374;2023-05-16T12:16:31;10.68;;;6.70;;
11334;SDS011;5722;42.620;23.374;2023-05-16T12:21:46;11.50;;;6.00;;
11334;SDS011;5722;42.620;23.374;2023-05-16T12:24:13;14.95;;;6.13;;
11334;SDS011;5722;42.620;23.374;2023-05-16T12:26:40;11.48;;;6.00;;
11334;SDS011;5722;42.620;23.374;2023-05-16T12:29:09;11.10;;;6.20;;
11334;SDS011;5722;42.620;23.374;2023-05-16T12:31:37;14.55;;;6.38;;
11334;SDS011;5722;42.620;23.374;2023-05-16T12:34:04;9.43;;;6.10;;
11334;SDS011;5722;42.620;23.374;2023-05-16T12:36:49;11.93;;;6.50;;
11334;SDS011;5722;42.620;23.374;2023-05-16T12:39:17;10.43;;;6.57;;
11334;SDS011;5722;42.620;23.374;2023-05-16T12:41:45;9.50;;;6.82;;
11334;SDS011;5722;42.620;23.374;2023-05-16T12:44:17;11.18;;;6.55;;
11334;SDS011;5722;42.620;23.374;2023-05-16T12:46:45;12.63;;;6.70;;
11334;SDS011;5722;42.620;23.374;2023-05-16T12:49:23;15.52;;;6.57;;
11334;SDS011;5722;42.620;23.374;2023-05-16T12:51:53;11.85;;;7.05;;
11334;SDS011;5722;42.620;23.374;2023-05-16T12:54:26;8.82;;;6.40;;
11334;SDS011;5722;42.620;23.374;2023-05-16T12:56:55;13.27;;;6.38;;
11334;SDS011;5722;42.620;23.374;2023-05-16T12:59:23;10.35;;;6.28;;
11334;SDS011;5722;42.620;23.374;2023-05-16T13:01:51;13.10;;;6.25;;
11334;SDS011;5722;42.620;23.374;2023-05-16T13:04:18;10.25;;;6.28;;
11334;SDS011;5722;42.620;23.374;2023-05-16T13:06:47;14.02;;;6.55;;
11334;SDS011;5722;42.620;23.374;2023-05-16T13:09:29;14.73;;;6.75;;
11334;SDS011;5722;42.620;23.374;2023-05-16T13:11:58;15.68;;;6.65;;
11334;SDS011;5722;42.620;23.374;2023-05-16T13:14:29;18.67;;;6.80;;
11334;SDS011;5722;42.620;23.374;2023-05-16T13:16:57;10.95;;;6.35;;
11334;SDS011;5722;42.620;23.374;2023-05-16T13:19:25;10.50;;;6.60;;
11334;SDS011;5722;42.620;23.374;2023-05-16T13:21:55;15.00;;;6.70;;
11334;SDS011;5722;42.620;23.374;2023-05-16T13:24:22;16.67;;;7.63;;
11334;SDS011;5722;42.620;23.374;2023-05-16T13:27:02;12.27;;;6.53;;
11334;SDS011;5722;42.620;23.374;2023-05-16T13:29:41;13.25;;;6.65;;
11334;SDS011;5722;42.620;23.374;2023-05-16T13:32:08;17.15;;;7.15;;
11334;SDS011;5722;42.620;23.374;2023-05-16T13:34:47;12.30;;;6.80;;
11334;SDS011;5722;42.620;23.374;2023-05-16T13:37:18;11.70;;;6.05;;
11334;SDS011;5722;42.620;23.374;2023-05-16T15:32:40;21.67;;;13.32;;
11334;SDS011;5722;42.620;23.374;2023-05-16T15:35:10;20.10;;;13.07;;
11334;SDS011;5722;42.620;23.374;2023-05-16T15:37:39;21.27;;;14.18;;
11334;SDS011;5722;42.620;23.374;2023-05-16T15:40:12;19.30;;;14.38;;
11334;SDS011;5722;42.620;23.374;2023-05-16T15:42:40;19.65;;;14.25;;
11334;SDS011;5722;42.620;23.374;2023-05-16T15:45:11;22.55;;;15.23;;
11334;SDS011;5722;42.620;23.374;2023-05-16T15:47:44;19.55;;;15.30;;
11334;SDS011;5722;42.620;23.374;2023-05-16T15:50:15;18.10;;;14.50;;
11334;SDS011;5722;42.620;23.374;2023-05-16T15:52:48;18.05;;;14.07;;
11334;SDS011;5722;42.620;23.374;2023-05-16T15:55:15;16.42;;;13.85;;
11334;SDS011;5722;42.620;23.374;2023-05-16T15:57:47;21.90;;;13.90;;
11334;SDS011;5722;42.620;23.374;2023-05-16T16:00:16;23.30;;;13.55;;
11334;SDS011;5722;42.620;23.374;2023-05-16T16:02:47;21.70;;;13.30;;
11334;SDS011;5722;42.620;23.374;2023-05-16T16:05:14;14.60;;;12.02;;
11334;SDS011;5722;42.620;23.374;2023-05-16T16:07:42;16.48;;;11.90;;
11334;SDS011;5722;42.620;23.374;2023-05-16T16:10:16;22.13;;;12.65;;
11334;SDS011;5722;42.620;23.374;2023-05-16T16:12:43;16.40;;;12.50;;
11334;SDS011;5722;42.620;23.374;2023-05-16T16:15:25;18.35;;;12.57;;
11334;SDS011;5722;42.620;23.374;2023-05-16T16:17:55;15.60;;;11.95;;
11334;SDS011;5722;42.620;23.374;2023-05-16T16:20:28;18.13;;;12.00;;
11334;SDS011;5722;42.620;23.374;2023-05-16T16:22:59;19.48;;;12.50;;
11334;SDS011;5722;42.620;23.374;2023-05-16T16:25:26;17.98;;;11.10;;
11334;SDS011;5722;42.620;23.374;2023-05-16T16:27:55;24.65;;;12.18;;
11334;SDS011;5722;42.620;23.374;2023-05-16T16:30:26;20.80;;;11.93;;
11334;SDS011;5722;42.620;23.374;2023-05-16T16:32:54;15.13;;;11.65;;
11334;SDS011;5722;42.620;23.374;2023-05-16T16:35:24;19.05;;;12.57;;
11334;SDS011;5722;42.620;23.374;2023-05-16T16:37:57;19.98;;;14.80;;
11334;SDS011;5722;42.620;23.374;2023-05-16T16:40:25;20.38;;;14.63;;
11334;SDS011;5722;42.620;23.374;2023-05-16T16:42:53;29.90;;;14.70;;
11334;SDS011;5722;42.620;23.374;2023-05-16T16:45:25;24.13;;;15.10;;
11334;SDS011;5722;42.620;23.374;2023-05-16T16:47:59;19.95;;;13.90;;
11334;SDS011;5722;42.620;23.374;2023-05-16T16:50:28;20.33;;;13.00;;
11334;SDS011;5722;42.620;23.374;2023-05-16T16:52:59;23.95;;;14.07;;
11334;SDS011;5722;42.620;23.374;2023-05-16T16:55:28;22.80;;;15.65;;
11334;SDS011;5722;42.620;23.374;2023-05-16T16:57:59;21.73;;;15.88;;
11334;SDS011;5722;42.620;23.374;2023-05-16T17:00:28;19.58;;;15.25;;
11334;SDS011;5722;42.620;23.374;2023-05-16T17:02:56;20.90;;;15.48;;